Time;durP1;ratioP1;P1;durP2;ratioP2;P2;SDS_P1;SDS_P2;PMS_P1;PMS_P2;Temp;Humidity;BMP_temperature;BMP_pressure;BME280_temperature;BME280_humidity;BME280_pressure;Samples;Min_cycle;Max_cycle;Signal;HPM_P1;HPM_P2
2022/04/27 00:01:42;;;;;;;0.40;0.40;;;;;;;8.84;63.28;98594.00;5094140;28;20039;-79
2022/04/27 00:04:09;;;;;;;0.50;0.50;;;;;;;8.81;63.21;98595.31;5112765;28;20078;-79
2022/04/27 00:06:36;;;;;;;0.50;0.50;;;;;;;8.79;63.30;98610.88;5094468;28;20044;-79
2022/04/27 00:09:04;;;;;;;0.40;0.40;;;;;;;8.75;63.57;98608.91;5112164;28;20051;-79
2022/04/27 00:11:31;;;;;;;0.40;0.40;;;;;;;8.67;63.73;98607.41;5114811;28;20072;-80
2022/04/27 00:14:00;;;;;;;0.45;0.45;;;;;;;8.64;63.84;98619.47;5098364;28;20055;-81
2022/04/27 00:16:27;;;;;;;0.40;0.40;;;;;;;8.62;63.93;98618.09;5098312;28;20058;-80
2022/04/27 00:18:55;;;;;;;0.40;0.40;;;;;;;8.56;64.54;98611.81;5118507;28;20043;-80
2022/04/27 00:21:22;;;;;;;0.43;0.43;;;;;;;8.53;64.67;98624.91;5116843;28;20071;-80
2022/04/27 00:23:49;;;;;;;0.45;0.45;;;;;;;8.54;65.02;98623.88;5097927;28;20509;-80
2022/04/27 00:26:16;;;;;;;0.50;0.50;;;;;;;8.49;65.18;98626.44;5097855;28;20064;-79
2022/04/27 00:28:43;;;;;;;0.40;0.40;;;;;;;8.49;65.37;98632.66;5097315;28;20048;-80
2022/04/27 00:31:11;;;;;;;0.40;0.40;;;;;;;8.48;65.47;98630.19;5097634;28;20051;-80
2022/04/27 00:33:38;;;;;;;0.50;0.50;;;;;;;8.46;65.59;98635.81;5115458;28;20089;-80
2022/04/27 00:36:05;;;;;;;0.50;0.50;;;;;;;8.43;65.88;98636.28;5115661;28;20647;-80
2022/04/27 00:38:32;;;;;;;0.40;0.40;;;;;;;8.34;66.24;98635.81;5093866;28;20147;-80
2022/04/27 00:40:59;;;;;;;0.50;0.50;;;;;;;8.30;66.58;98639.22;5095120;28;20410;-80
2022/04/27 00:43:41;;;;;;;0.50;0.50;;;;;;;8.24;67.04;98641.00;5094845;28;20518;-79
2022/04/27 00:46:11;;;;;;;0.50;0.50;;;;;;;8.15;67.51;98645.09;5095215;28;20109;-80
2022/04/27 00:48:39;;;;;;;0.50;0.50;;;;;;;8.11;67.65;98639.38;5094986;28;20048;-80
2022/04/27 00:51:07;;;;;;;0.50;0.50;;;;;;;8.12;67.73;98638.31;5095156;28;20048;-79
2022/04/27 00:53:35;;;;;;;0.50;0.50;;;;;;;8.11;68.17;98638.59;5077186;28;20072;-79
2022/04/27 00:56:02;;;;;;;0.50;0.50;;;;;;;8.09;67.88;98635.31;5076928;28;20048;-80
2022/04/27 00:58:29;;;;;;;0.50;0.50;;;;;;;8.04;68.44;98652.13;5094936;28;20056;-80
2022/04/27 01:01:16;;;;;;;0.50;0.50;;;;;;;8.02;68.57;98651.56;5094975;28;20442;-79
2022/04/27 01:03:44;;;;;;;0.50;0.50;;;;;;;7.95;68.89;98640.09;5094610;28;20629;-81
2022/04/27 01:06:12;;;;;;;0.50;0.50;;;;;;;7.93;68.86;98644.94;5076581;28;20450;-78
2022/04/27 01:08:40;;;;;;;0.50;0.50;;;;;;;7.89;69.03;98654.50;5076442;28;20076;-79
2022/04/27 01:11:07;;;;;;;0.50;0.50;;;;;;;7.86;69.54;98649.59;5094732;28;20094;-80
2022/04/27 01:13:41;;;;;;;0.50;0.50;;;;;;;7.88;69.58;98663.63;5076432;28;20083;-80
2022/04/27 01:16:10;;;;;;;0.50;0.50;;;;;;;7.85;69.81;98664.06;5094488;28;20437;-79
2022/04/27 01:18:38;;;;;;;0.50;0.50;;;;;;;7.81;69.94;98669.09;5076054;28;20073;-79
2022/04/27 01:21:06;;;;;;;0.50;0.50;;;;;;;7.75;70.37;98665.50;5076433;28;20048;-81
2022/04/27 01:23:42;;;;;;;0.50;0.50;;;;;;;7.63;71.06;98659.31;5076824;28;20055;-79
2022/04/27 01:26:09;;;;;;;0.50;0.50;;;;;;;7.65;70.80;98667.13;5076446;28;20417;-80
2022/04/27 01:28:38;;;;;;;0.50;0.50;;;;;;;7.69;71.07;98668.28;5094121;28;20538;-80
2022/04/27 01:31:08;;;;;;;0.50;0.50;;;;;;;7.65;71.11;98669.81;5094239;28;20506;-80
2022/04/27 01:33:36;;;;;;;0.50;0.50;;;;;;;7.59;71.31;98663.50;5076877;28;20052;-79
2022/04/27 01:36:05;;;;;;;0.50;0.50;;;;;;;7.60;71.55;98663.28;5094385;28;20125;-79
2022/04/27 01:38:43;;;;;;;0.50;0.50;;;;;;;7.59;71.66;98661.63;5076405;28;20058;-79
2022/04/27 01:41:11;;;;;;;0.50;0.50;;;;;;;7.59;71.68;98668.88;5076182;28;20048;-79
2022/04/27 01:43:38;;;;;;;0.50;0.50;;;;;;;7.55;71.89;98670.41;5076244;28;20465;-79
2022/04/27 01:46:06;;;;;;;0.45;0.45;;;;;;;7.47;71.93;98663.50;5094096;28;20180;-79
2022/04/27 01:48:34;;;;;;;0.50;0.50;;;;;;;7.48;72.05;98669.69;5075613;28;20044;-79
2022/04/27 01:51:01;;;;;;;0.50;0.50;;;;;;;7.46;72.43;98669.91;5094148;28;20070;-79
2022/04/27 01:56:18;;;;;;;0.50;0.50;;;;;;;7.47;72.63;98670.72;5076067;28;20048;-80
2022/04/27 01:58:51;;;;;;;0.50;0.50;;;;;;;7.45;72.49;98668.28;5076291;28;20048;-80
2022/04/27 02:01:21;;;;;;;0.50;0.50;;;;;;;7.45;72.69;98675.53;5082157;28;20067;-78
2022/04/27 02:03:51;;;;;;;0.50;0.50;;;;;;;7.38;72.56;98670.25;5101954;28;20024;-79
2022/04/27 02:06:20;;;;;;;0.50;0.50;;;;;;;7.34;72.80;98669.91;5092042;28;20047;-79
2022/04/27 02:08:48;;;;;;;0.50;0.50;;;;;;;7.36;72.81;98670.47;5088760;28;20046;-79
2022/04/27 02:11:26;;;;;;;0.40;0.40;;;;;;;7.37;72.89;98674.00;5098343;28;20058;-80
2022/04/27 02:14:04;;;;;;;0.50;0.50;;;;;;;7.41;72.81;98669.78;5096276;28;20093;-80
2022/04/27 02:16:33;;;;;;;0.50;0.50;;;;;;;7.42;72.88;98662.56;5095362;28;20391;-80
2022/04/27 02:19:04;;;;;;;0.50;0.50;;;;;;;7.47;72.79;98676.09;5113947;28;20051;-80
2022/04/27 02:21:32;;;;;;;0.50;0.50;;;;;;;7.50;72.81;98675.66;5095328;28;20097;-79
2022/04/27 02:23:59;;;;;;;0.50;0.50;;;;;;;7.49;72.45;98685.56;5095667;28;20047;-80
2022/04/27 02:26:27;;;;;;;0.50;0.50;;;;;;;7.46;72.57;98679.84;5077798;28;20153;-80
2022/04/27 02:28:56;;;;;;;0.50;0.50;;;;;;;7.42;72.80;98692.09;5095935;28;20058;-80
2022/04/27 02:31:24;;;;;;;0.50;0.50;;;;;;;7.36;73.04;98683.09;5113408;28;20112;-80
2022/04/27 02:33:52;;;;;;;0.50;0.50;;;;;;;7.38;73.28;98692.56;5094237;28;20035;-80
2022/04/27 02:36:19;;;;;;;0.50;0.50;;;;;;;7.40;73.32;98686.16;5104085;28;20050;-81
2022/04/27 02:38:46;;;;;;;0.47;0.47;;;;;;;7.43;73.45;98691.06;5094550;28;20132;-80
2022/04/27 02:41:13;;;;;;;0.45;0.45;;;;;;;7.42;73.38;98700.97;5112783;28;20498;-80
2022/04/27 02:43:41;;;;;;;0.50;0.50;;;;;;;7.41;73.48;98702.00;5094616;28;20518;-80
2022/04/27 02:46:12;;;;;;;0.50;0.50;;;;;;;7.41;73.34;98702.00;5088543;28;20043;-77
2022/04/27 02:51:48;;;;;;;0.50;0.50;;;;;;;7.30;73.46;98706.31;5112533;28;20051;-80
2022/04/27 02:54:20;;;;;;;0.50;0.50;;;;;;;7.19;74.26;98708.97;5094859;28;20066;-78
2022/04/27 02:56:49;;;;;;;0.50;0.50;;;;;;;7.21;74.03;98712.25;5094531;28;20138;-77
2022/04/27 02:59:18;;;;;;;0.50;0.50;;;;;;;7.11;74.28;98707.44;5093532;28;20055;-80
2022/04/27 03:01:49;;;;;;;0.50;0.50;;;;;;;7.03;74.63;98697.03;5087977;28;20054;-79
2022/04/27 03:04:17;;;;;;;0.50;0.50;;;;;;;6.95;74.95;98712.41;5094183;28;20075;-79
2022/04/27 03:06:45;;;;;;;0.50;0.50;;;;;;;6.94;75.03;98710.78;5094163;28;20464;-80
2022/04/27 03:09:12;;;;;;;0.50;0.50;;;;;;;6.93;75.19;98711.00;5077749;28;20399;-78
2022/04/27 03:11:43;;;;;;;0.50;0.50;;;;;;;6.83;75.61;98708.84;5094212;28;20518;-80
2022/04/27 03:14:29;;;;;;;0.60;0.60;;;;;;;6.80;75.77;98716.53;5111962;28;20035;-79
2022/04/27 03:16:59;;;;;;;0.50;0.50;;;;;;;6.75;75.96;98716.41;5111106;28;20569;-78
2022/04/27 03:19:27;;;;;;;0.60;0.60;;;;;;;6.70;76.18;98723.25;5093385;28;20051;-80
2022/04/27 03:21:54;;;;;;;0.50;0.50;;;;;;;6.66;76.33;98716.72;5093974;28;20043;-79
2022/04/27 03:24:22;;;;;;;0.50;0.50;;;;;;;6.67;76.38;98712.19;5077052;28;20051;-80
2022/04/27 03:26:52;;;;;;;0.50;0.50;;;;;;;6.74;76.35;98718.28;5093163;28;20047;-79
2022/04/27 03:29:22;;;;;;;0.60;0.60;;;;;;;6.78;76.47;98713.25;5089924;28;20075;-80
2022/04/27 03:31:55;;;;;;;0.60;0.60;;;;;;;6.82;76.36;98715.28;5079272;28;20591;-80
2022/04/27 03:34:23;;;;;;;0.60;0.60;;;;;;;6.84;76.45;98725.78;5073816;28;20048;-79
2022/04/27 03:36:52;;;;;;;0.60;0.60;;;;;;;6.84;76.65;98723.91;5074753;28;20044;-83
2022/04/27 03:39:20;;;;;;;0.60;0.60;;;;;;;6.79;76.67;98720.28;5092826;28;20047;-82
2022/04/27 03:42:11;;;;;;;0.60;0.60;;;;;;;6.69;76.91;98731.53;5093585;28;20044;-81
2022/04/27 03:44:41;;;;;;;0.50;0.50;;;;;;;6.64;77.25;98729.53;5077343;28;20448;-81
2022/04/27 03:47:08;;;;;;;0.50;0.50;;;;;;;6.62;77.42;98730.81;5094183;28;20051;-80
2022/04/27 03:49:35;;;;;;;0.60;0.60;;;;;;;6.60;77.33;98728.34;5094086;28;20510;-81
2022/04/27 03:52:02;;;;;;;0.60;0.60;;;;;;;6.58;77.71;98738.47;5094208;28;20043;-82
2022/04/27 03:54:30;;;;;;;0.50;0.50;;;;;;;6.56;77.65;98737.06;5075101;28;20039;-83
2022/04/27 03:56:58;;;;;;;0.60;0.60;;;;;;;6.58;77.76;98737.66;5090454;28;20769;-80
2022/04/27 03:59:26;;;;;;;0.50;0.50;;;;;;;6.63;77.80;98732.44;5093060;28;20066;-84
2022/04/27 04:01:53;;;;;;;0.50;0.50;;;;;;;6.71;77.58;98741.00;5075324;28;20050;-82
2022/04/27 04:04:20;;;;;;;0.60;0.60;;;;;;;6.76;77.66;98736.81;5089060;28;20050;-81
2022/04/27 04:06:48;;;;;;;0.60;0.60;;;;;;;6.76;77.75;98739.50;5072160;28;20040;-84
2022/04/27 04:09:16;;;;;;;0.50;0.50;;;;;;;6.78;77.63;98742.78;5072554;28;20052;-83
2022/04/27 04:11:44;;;;;;;0.60;0.60;;;;;;;6.77;77.37;98741.97;5076997;28;20044;-83
2022/04/27 04:14:17;;;;;;;0.50;0.50;;;;;;;6.79;77.33;98737.19;5075730;28;20550;-80
2022/04/27 04:16:53;;;;;;;0.50;0.50;;;;;;;6.84;77.20;98731.97;5091665;28;20048;-81
2022/04/27 04:19:29;;;;;;;0.60;0.60;;;;;;;6.92;76.48;98734.31;5091013;28;20063;-82
2022/04/27 04:22:16;;;;;;;0.60;0.60;;;;;;;7.10;76.41;98746.06;5057052;28;20052;-82
2022/04/27 04:30:43;;;;;;;0.50;0.50;;;;;;;7.54;74.79;98750.13;5055983;28;20050;-81
2022/04/27 04:33:26;;;;;;;0.60;0.60;;;;;;;7.76;73.75;98745.03;5072751;28;20058;-80
2022/04/27 04:35:59;;;;;;;0.60;0.60;;;;;;;7.97;73.34;98753.56;5072945;28;20048;-82
2022/04/27 04:38:27;;;;;;;0.60;0.60;;;;;;;8.22;72.88;98739.88;5072986;28;20453;-83
2022/04/27 04:40:58;;;;;;;0.60;0.60;;;;;;;8.50;71.88;98741.84;5072581;28;20159;-81
2022/04/27 04:43:36;;;;;;;0.60;0.60;;;;;;;8.60;71.10;98736.66;5078522;28;20052;-82
2022/04/27 04:46:03;;;;;;;0.60;0.60;;;;;;;8.74;69.70;98739.91;5087809;28;20507;-82
2022/04/27 04:48:51;;;;;;;0.50;0.50;;;;;;;8.66;69.79;98746.50;5090989;28;20063;-82
2022/04/27 04:51:34;;;;;;;0.60;0.60;;;;;;;8.74;68.25;98744.50;5100945;28;20044;-84
2022/04/27 04:54:20;;;;;;;0.60;0.60;;;;;;;8.80;68.30;98732.75;5104988;28;20044;-83
2022/04/27 04:56:59;;;;;;;0.60;0.60;;;;;;;8.95;67.16;98726.84;5098098;28;20052;-83
2022/04/27 04:59:56;;;;;;;0.50;0.50;;;;;;;9.22;66.33;98735.16;5090950;28;20063;-83
2022/04/27 05:02:42;;;;;;;0.60;0.60;;;;;;;9.45;64.62;98736.91;5054872;28;20039;-82
2022/04/27 05:05:21;;;;;;;0.60;0.60;;;;;;;9.47;63.09;98738.31;5082650;28;20044;-82
2022/04/27 05:07:55;;;;;;;0.60;0.60;;;;;;;9.29;63.26;98741.19;5084205;28;20486;-83
2022/04/27 05:11:00;;;;;;;0.57;0.57;;;;;;;9.11;62.85;98744.91;5041806;28;20416;-82
2022/04/27 05:13:59;;;;;;;0.50;0.50;;;;;;;9.13;61.29;98733.91;5045701;28;20599;-81
2022/04/27 05:16:36;;;;;;;0.50;0.50;;;;;;;9.21;61.08;98744.28;5038992;28;20184;-80
2022/04/27 05:19:30;;;;;;;0.50;0.50;;;;;;;9.42;60.85;98740.91;5025021;28;20053;-82
2022/04/27 05:22:16;;;;;;;0.60;0.60;;;;;;;9.67;59.79;98742.38;5047261;28;20052;-82
2022/04/27 05:25:03;;;;;;;0.60;0.60;;;;;;;9.75;58.63;98744.69;5045105;28;20072;-81
2022/04/27 05:28:03;;;;;;;0.50;0.50;;;;;;;9.88;58.42;98741.66;5045192;28;20139;-82
2022/04/27 05:34:00;;;;;;;0.50;0.50;;;;;;;10.11;56.81;98739.81;5028163;28;20049;-83
2022/04/27 05:36:48;;;;;;;0.60;0.60;;;;;;;10.09;55.34;98739.25;5012500;28;20053;-83
2022/04/27 05:39:31;;;;;;;0.50;0.50;;;;;;;10.25;54.77;98745.66;5048241;28;20431;-84
2022/04/27 05:42:17;;;;;;;0.60;0.60;;;;;;;10.52;54.74;98748.50;5067976;28;20059;-85
2022/04/27 05:45:08;;;;;;;0.60;0.60;;;;;;;10.84;54.65;98752.13;5097190;28;20316;-84
2022/04/27 05:48:00;;;;;;;0.60;0.60;;;;;;;11.03;52.85;98757.19;5058318;28;20048;-84
2022/04/27 05:50:43;;;;;;;0.60;0.60;;;;;;;10.98;52.05;98757.13;5079583;28;20064;-83
2022/04/27 05:53:34;;;;;;;0.50;0.50;;;;;;;10.70;51.77;98756.28;5071888;28;20073;-83
2022/04/27 05:56:09;;;;;;;0.60;0.60;;;;;;;10.56;52.45;98758.53;5112175;28;20713;-84
2022/04/27 05:59:12;;;;;;;0.50;0.50;;;;;;;10.65;52.57;98760.81;5111945;28;20054;-83
2022/04/27 06:02:18;;;;;;;;;;;;;;;11.00;52.63;98761.22;5079765;28;20511;-83
2022/04/27 06:04:46;;;;;;;0.50;0.50;;;;;;;11.21;51.94;98767.66;5086314;28;20494;-82
2022/04/27 06:07:13;;;;;;;0.60;0.60;;;;;;;11.32;50.59;98770.44;5072130;28;20044;-83
2022/04/27 06:09:41;;;;;;;0.50;0.50;;;;;;;11.42;50.75;98765.97;5057089;28;20040;-84
2022/04/27 06:12:19;;;;;;;0.40;0.40;;;;;;;11.31;49.90;98779.63;5096315;28;20051;-83
2022/04/27 06:15:12;;;;;;;0.55;0.55;;;;;;;11.17;50.12;98780.03;5069221;28;20066;-82
2022/04/27 06:17:39;;;;;;;0.60;0.60;;;;;;;11.27;49.90;98777.44;5087166;28;20054;-84
2022/04/27 06:20:09;;;;;;;0.60;0.60;;;;;;;11.58;49.01;98774.22;5125037;28;20050;-84
2022/04/27 06:22:37;;;;;;;0.60;0.60;;;;;;;11.80;48.24;98777.66;5072848;28;20146;-83
2022/04/27 06:25:04;;;;;;;0.60;0.60;;;;;;;11.77;47.40;98780.06;5081687;28;20052;-84
2022/04/27 06:27:47;;;;;;;0.50;0.50;;;;;;;11.69;46.94;98775.94;5083220;28;20510;-83
2022/04/27 06:30:15;;;;;;;0.50;0.50;;;;;;;11.37;47.68;98792.94;5081368;28;20518;-84
2022/04/27 06:32:46;;;;;;;0.50;0.50;;;;;;;11.09;48.25;98788.59;5094740;28;20055;-82
2022/04/27 06:35:14;;;;;;;0.50;0.50;;;;;;;10.96;48.23;98795.22;5088681;28;20055;-84
2022/04/27 06:37:45;;;;;;;0.50;0.50;;;;;;;11.09;48.31;98794.00;5089440;28;20044;-86
2022/04/27 06:40:13;;;;;;;0.50;0.50;;;;;;;11.15;47.70;98795.69;5097730;28;20400;-85
2022/04/27 06:42:44;;;;;;;0.60;0.60;;;;;;;11.17;47.91;98795.44;5075392;28;20063;-83
2022/04/27 06:45:32;;;;;;;0.50;0.50;;;;;;;11.21;47.19;98802.75;5086153;28;20101;-83
2022/04/27 06:48:22;;;;;;;0.50;0.50;;;;;;;11.42;47.78;98800.28;5058716;28;20431;-83
2022/04/27 06:51:08;;;;;;;0.50;0.50;;;;;;;11.62;46.44;98797.78;5056593;28;20066;-84
2022/04/27 06:53:58;;;;;;;0.60;0.60;;;;;;;11.68;45.90;98804.06;4968912;28;20066;-82
2022/04/27 06:56:44;;;;;;;0.50;0.50;;;;;;;11.87;46.24;98797.19;4971421;28;20061;-83
2022/04/27 06:59:37;;;;;;;0.50;0.50;;;;;;;12.05;46.24;98801.44;4973910;28;20534;-81
2022/04/27 07:02:10;;;;;;;0.50;0.50;;;;;;;12.29;46.07;98795.63;4953957;28;20086;-80
2022/04/27 07:04:37;;;;;;;0.60;0.60;;;;;;;12.53;45.05;98796.88;4985856;28;20186;-83
2022/04/27 07:07:05;;;;;;;0.50;0.50;;;;;;;12.72;44.67;98797.22;4956714;28;20101;-82
2022/04/27 07:09:33;;;;;;;0.50;0.50;;;;;;;12.75;44.00;98799.41;4987249;28;20074;-81
2022/04/27 07:12:01;;;;;;;0.57;0.57;;;;;;;12.91;44.31;98804.88;4971531;28;20533;-81
2022/04/27 07:14:28;;;;;;;0.50;0.50;;;;;;;12.88;43.41;98800.81;4982292;28;20187;-81
2022/04/27 07:16:55;;;;;;;0.50;0.50;;;;;;;12.70;43.73;98812.09;4938490;28;20053;-83
2022/04/27 07:19:22;;;;;;;0.50;0.50;;;;;;;12.32;44.86;98801.31;4950900;28;20055;-81
2022/04/27 07:21:49;;;;;;;0.50;0.50;;;;;;;12.40;44.93;98807.34;4968268;28;20054;-82
2022/04/27 07:24:16;;;;;;;0.50;0.50;;;;;;;12.69;44.55;98816.72;4969314;28;20532;-82
2022/04/27 07:26:44;;;;;;;0.50;0.50;;;;;;;12.97;43.71;98812.78;4986325;28;20282;-82
2022/04/27 07:29:11;;;;;;;0.57;0.57;;;;;;;12.83;43.01;98811.63;4988533;28;20054;-81
2022/04/27 07:31:38;;;;;;;0.70;0.70;;;;;;;12.78;43.52;98817.00;5066220;28;20542;-80
2022/04/27 07:34:06;;;;;;;0.50;0.50;;;;;;;12.85;43.67;98816.78;5078940;28;20094;-81
2022/04/27 07:36:33;;;;;;;0.52;0.52;;;;;;;12.35;43.75;98817.03;5098441;28;20066;-81
2022/04/27 07:39:00;;;;;;;0.70;0.70;;;;;;;12.53;44.05;98805.00;5096238;28;20060;-80
2022/04/27 07:41:27;;;;;;;0.70;0.70;;;;;;;13.08;42.67;98810.09;5104949;28;20052;-81
2022/04/27 07:43:54;;;;;;;0.70;0.70;;;;;;;13.29;43.00;98819.94;5086873;28;20044;-82
2022/04/27 07:46:22;;;;;;;0.60;0.60;;;;;;;13.37;41.84;98816.75;5077554;28;20056;-82
2022/04/27 07:48:51;;;;;;;0.60;0.60;;;;;;;13.20;41.70;98819.63;5085554;28;20043;-81
2022/04/27 07:51:18;;;;;;;0.60;0.60;;;;;;;13.34;42.98;98821.88;5094922;28;20523;-81
2022/04/27 07:53:45;;;;;;;0.70;0.70;;;;;;;13.81;41.15;98810.84;5095021;28;20112;-82
2022/04/27 07:56:13;;;;;;;0.60;0.60;;;;;;;14.33;40.84;98811.66;5083531;28;20104;-81
2022/04/27 07:58:40;;;;;;;0.60;0.60;;;;;;;14.77;40.46;98807.50;5095003;28;20044;-84
2022/04/27 08:01:08;;;;;;;0.60;0.60;;;;;;;14.90;40.01;98812.34;5092556;28;20051;-81
2022/04/27 08:03:35;;;;;;;0.50;0.50;;;;;;;14.69;39.97;98820.56;5073623;28;20048;-80
2022/04/27 08:06:04;;;;;;;0.50;0.50;;;;;;;14.31;41.53;98820.06;5063717;28;20065;-82
2022/04/27 08:08:32;;;;;;;0.50;0.50;;;;;;;14.07;41.46;98816.25;5098276;28;20048;-81
2022/04/27 08:10:59;;;;;;;0.50;0.50;;;;;;;14.16;41.50;98821.97;5102429;28;20052;-83
2022/04/27 08:13:26;;;;;;;0.50;0.50;;;;;;;14.24;41.46;98821.41;5098829;28;20043;-82
2022/04/27 08:15:53;;;;;;;0.50;0.50;;;;;;;13.95;40.08;98821.97;5100506;28;20047;-80
2022/04/27 08:18:21;;;;;;;0.60;0.60;;;;;;;13.88;40.18;98816.81;5091789;28;20510;-82
2022/04/27 08:23:34;;;;;;;0.70;0.70;;;;;;;14.55;39.63;98818.69;5095940;28;20052;-81
2022/04/27 08:26:03;;;;;;;0.70;0.70;;;;;;;15.15;38.94;98816.84;5096140;28;20047;-82
2022/04/27 08:28:31;;;;;;;0.80;0.80;;;;;;;15.90;38.11;98814.00;5091582;28;20075;-80
2022/04/27 08:30:59;;;;;;;0.80;0.80;;;;;;;16.82;36.84;98801.41;5070138;28;20082;-81
2022/04/27 08:33:30;;;;;;;0.90;0.90;;;;;;;17.42;35.78;98803.63;5087792;28;20052;-82
2022/04/27 08:35:57;;;;;;;0.50;0.50;;;;;;;16.88;35.20;98802.97;5095088;28;20048;-82
2022/04/27 08:38:45;;;;;;;0.70;0.70;;;;;;;16.45;36.26;98814.56;5099682;28;20105;-81
2022/04/27 08:41:12;;;;;;;0.60;0.60;;;;;;;16.47;36.05;98797.94;5091823;28;20243;-84
2022/04/27 08:43:39;;;;;;;0.50;0.50;;;;;;;16.04;36.09;98795.88;5069674;28;20090;-82
2022/04/27 08:46:08;;;;;;;0.40;0.40;;;;;;;15.21;37.31;98799.41;5104119;28;20051;-83
2022/04/27 08:48:36;;;;;;;0.40;0.40;;;;;;;14.69;37.62;98812.41;5097821;28;20044;-81
2022/04/27 08:51:04;;;;;;;0.40;0.40;;;;;;;14.02;38.44;98811.66;5104505;28;20131;-82
2022/04/27 08:53:33;;;;;;;0.40;0.40;;;;;;;13.84;39.94;98804.88;5100028;28;20067;-82
2022/04/27 08:56:01;;;;;;;0.40;0.40;;;;;;;13.83;39.83;98802.44;5060294;28;20054;-82
2022/04/27 08:58:28;;;;;;;0.50;0.50;;;;;;;13.83;39.55;98807.88;5099617;28;20060;-82
2022/04/27 09:01:10;;;;;;;0.50;0.50;;;;;;;13.96;38.42;98806.50;5091986;28;20515;-83
2022/04/27 09:03:39;;;;;;;0.50;0.50;;;;;;;13.88;37.83;98811.38;5098143;28;20426;-81
2022/04/27 09:06:10;;;;;;;0.40;0.40;;;;;;;13.53;38.24;98806.75;5096819;28;20136;-84
2022/04/27 09:08:45;;;;;;;0.40;0.40;;;;;;;13.22;38.35;98808.53;5091947;28;20052;-81
2022/04/27 09:11:21;;;;;;;0.40;0.40;;;;;;;13.06;39.47;98820.38;5072515;28;20635;-82
2022/04/27 09:13:55;;;;;;;0.43;0.43;;;;;;;12.77;40.65;98818.09;5092992;28;20056;-84
2022/04/27 09:16:27;;;;;;;0.40;0.40;;;;;;;12.33;42.47;98834.59;5102549;28;20055;-84
2022/04/27 09:21:58;;;;;;;0.40;0.40;;;;;;;11.51;47.50;98836.59;5085230;28;20050;-83
2022/04/27 09:24:30;;;;;;;0.40;0.40;;;;;;;11.25;50.14;98835.50;5077185;28;20530;-81
2022/04/27 09:27:03;;;;;;;0.40;0.40;;;;;;;10.96;50.62;98842.97;5106083;28;20051;-82
2022/04/27 09:29:31;;;;;;;0.50;0.50;;;;;;;10.73;51.22;98844.84;5080365;28;20528;-84
2022/04/27 09:31:59;;;;;;;0.50;0.50;;;;;;;10.88;52.00;98854.22;5096452;28;20039;-83
2022/04/27 09:34:29;;;;;;;0.50;0.50;;;;;;;10.91;52.49;98856.41;5114592;28;20054;-82
2022/04/27 09:37:13;;;;;;;0.40;0.40;;;;;;;10.84;52.78;98862.00;5114216;28;20043;-82
2022/04/27 09:39:41;;;;;;;0.50;0.50;;;;;;;10.56;53.21;98853.00;5114118;28;20054;-82
2022/04/27 09:42:12;;;;;;;0.50;0.50;;;;;;;10.66;53.30;98859.56;5114220;28;20536;-83
2022/04/27 09:44:39;;;;;;;0.50;0.50;;;;;;;10.79;52.56;98865.44;5113709;28;20044;-83
2022/04/27 09:47:07;;;;;;;0.40;0.40;;;;;;;10.96;52.35;98872.69;5114401;28;20044;-82
2022/04/27 09:49:36;;;;;;;0.50;0.50;;;;;;;10.80;50.86;98858.97;5079500;28;20078;-82
2022/04/27 09:52:06;;;;;;;0.50;0.50;;;;;;;10.77;50.56;98872.97;5114573;28;20180;-83
2022/04/27 09:54:36;;;;;;;0.50;0.50;;;;;;;10.72;50.45;98872.91;5114360;28;20051;-83
2022/04/27 09:57:05;;;;;;;0.50;0.50;;;;;;;10.82;50.46;98875.75;5096315;28;20047;-84
2022/04/27 09:59:35;;;;;;;0.50;0.50;;;;;;;10.83;49.78;98880.06;5097932;28;20132;-81
2022/04/27 10:02:13;;;;;;;0.50;0.50;;;;;;;11.00;49.15;98887.31;4743755;28;10000760;-82
2022/04/27 10:04:42;;;;;;;0.50;0.50;;;;;;;11.12;48.88;98879.91;5100197;28;20092;-83
2022/04/27 10:07:13;;;;;;;0.50;0.50;;;;;;;11.25;48.40;98890.34;5096060;28;20058;-82
2022/04/27 10:09:40;;;;;;;0.50;0.50;;;;;;;11.25;48.24;98895.75;5081737;28;20074;-82
2022/04/27 10:12:14;;;;;;;0.50;0.50;;;;;;;11.39;48.34;98890.75;5098649;28;20070;-82
2022/04/27 10:14:42;;;;;;;0.50;0.50;;;;;;;11.55;48.26;98899.88;5091129;28;20052;-81
2022/04/27 10:17:11;;;;;;;0.50;0.50;;;;;;;11.57;47.97;98896.91;5098423;28;20063;-80
2022/04/27 10:19:50;;;;;;;0.50;0.50;;;;;;;11.69;48.03;98903.81;5096889;28;20052;-82
2022/04/27 10:22:24;;;;;;;0.50;0.50;;;;;;;11.68;48.59;98909.47;5098176;28;20075;-81
2022/04/27 10:24:57;;;;;;;0.55;0.55;;;;;;;11.67;49.38;98905.97;5097602;28;20151;-81
2022/04/27 10:27:35;;;;;;;0.50;0.50;;;;;;;11.95;49.18;98914.09;5097266;28;20032;-81
2022/04/27 10:30:08;;;;;;;0.50;0.50;;;;;;;11.87;49.62;98916.19;5106692;28;20032;-82
2022/04/27 10:32:36;;;;;;;0.52;0.52;;;;;;;11.82;49.45;98916.09;5084973;28;20040;-81
2022/04/27 10:35:17;;;;;;;0.60;0.60;;;;;;;11.73;48.56;98922.25;5096399;28;20506;-81
2022/04/27 10:37:54;;;;;;;0.60;0.60;;;;;;;11.73;47.61;98922.25;5105002;28;20054;-82
2022/04/27 10:40:30;;;;;;;0.60;0.60;;;;;;;11.86;46.45;98932.66;5096418;28;20044;-81
2022/04/27 10:43:15;;;;;;;0.70;0.70;;;;;;;12.00;46.27;98923.09;5094936;28;20596;-82
2022/04/27 10:45:45;;;;;;;0.60;0.60;;;;;;;12.33;45.59;98922.03;5106257;28;20048;-81
2022/04/27 10:48:22;;;;;;;0.70;0.70;;;;;;;12.47;44.52;98925.13;5098945;28;20047;-80
2022/04/27 10:50:57;;;;;;;0.70;0.70;;;;;;;12.97;43.79;98921.13;5098298;28;20580;-80
2022/04/27 10:53:26;;;;;;;0.80;0.80;;;;;;;13.46;41.85;98917.31;5104766;28;20075;-80
2022/04/27 10:56:02;;;;;;;0.63;0.63;;;;;;;14.22;40.64;98913.97;5099607;28;20067;-81
2022/04/27 10:58:33;;;;;;;1.00;1.00;;;;;;;15.67;38.67;98912.59;5098929;28;20084;-80
2022/04/27 11:01:02;;;;;;;1.13;1.13;;;;;;;18.40;34.73;98905.63;5097116;28;20056;-81
2022/04/27 11:03:31;;;;;;;0.50;0.50;;;;;;;18.32;33.51;98910.97;5098375;28;20062;-81
2022/04/27 11:05:59;;;;;;;0.70;0.70;;;;;;;17.30;34.68;98910.44;5096649;28;20134;-81
2022/04/27 11:08:32;;;;;;;0.40;0.40;;;;;;;16.02;35.95;98911.59;5102515;28;20051;-82
2022/04/27 11:11:05;;;;;;;0.40;0.40;;;;;;;14.37;39.06;98904.19;5095719;28;20537;-80
2022/04/27 11:13:34;;;;;;;0.40;0.40;;;;;;;13.19;42.08;98915.56;5097764;28;20096;-81
2022/04/27 11:16:08;;;;;;;0.40;0.40;;;;;;;12.52;45.97;98922.44;5099377;28;20116;-81
2022/04/27 11:18:52;;;;;;;0.40;0.40;;;;;;;12.12;47.81;98929.13;5095502;28;20052;-82
2022/04/27 11:21:20;;;;;;;0.40;0.40;;;;;;;11.82;49.02;98936.91;5100377;28;20052;-80
2022/04/27 11:23:47;;;;;;;0.40;0.40;;;;;;;11.69;49.06;98938.13;5081008;28;20053;-79
2022/04/27 11:26:15;;;;;;;0.40;0.40;;;;;;;11.46;49.08;98944.63;5096476;28;20067;-80
2022/04/27 11:28:43;;;;;;;0.40;0.40;;;;;;;11.12;50.29;98942.03;5093846;28;20040;-81
2022/04/27 11:31:24;;;;;;;0.40;0.40;;;;;;;10.73;51.94;98963.59;5069466;28;20052;-82
2022/04/27 11:33:51;;;;;;;0.50;0.50;;;;;;;10.56;52.66;98977.13;5101296;28;20048;-81
2022/04/27 11:36:26;;;;;;;0.50;0.50;;;;;;;10.08;55.24;98993.78;5100931;28;20143;-81
2022/04/27 11:38:55;;;;;;;0.40;0.40;;;;;;;9.69;57.91;99001.63;5098852;28;20058;-81
2022/04/27 11:41:24;;;;;;;0.43;0.43;;;;;;;9.32;60.30;99004.66;5104195;28;20052;-82
2022/04/27 11:43:54;;;;;;;0.50;0.50;;;;;;;9.10;62.03;99010.63;5096804;28;20498;-81
2022/04/27 11:46:21;;;;;;;0.50;0.50;;;;;;;9.02;63.98;99024.44;5102876;28;20066;-81
2022/04/27 11:48:49;;;;;;;0.50;0.50;;;;;;;8.86;65.43;99004.44;5100033;28;20058;-83
2022/04/27 11:51:17;;;;;;;0.52;0.52;;;;;;;8.82;67.43;99007.81;5083634;28;20073;-83
2022/04/27 11:53:47;;;;;;;0.50;0.50;;;;;;;9.06;66.72;99009.47;5103542;28;20108;-82
2022/04/27 11:56:19;;;;;;;0.50;0.50;;;;;;;9.01;65.22;99001.25;5065525;28;20040;-84
2022/04/27 11:58:46;;;;;;;0.60;0.60;;;;;;;9.02;65.44;99007.50;5101619;28;20092;-82
2022/04/27 12:01:22;;;;;;;0.50;0.50;;;;;;;9.18;64.33;99011.34;5089856;28;20056;-81
2022/04/27 12:03:49;;;;;;;0.50;0.50;;;;;;;9.38;64.57;99011.78;5077707;28;20316;-81
2022/04/27 12:06:18;;;;;;;0.50;0.50;;;;;;;9.60;63.50;99013.88;5097170;28;20051;-83
2022/04/27 12:08:45;;;;;;;0.50;0.50;;;;;;;9.61;62.93;99012.78;5097204;28;20048;-82
2022/04/27 12:11:23;;;;;;;0.60;0.60;;;;;;;9.71;62.32;99008.44;5100973;28;20071;-82
2022/04/27 12:13:51;;;;;;;0.60;0.60;;;;;;;9.85;62.57;99009.00;5095637;28;20081;-81
2022/04/27 12:16:19;;;;;;;0.50;0.50;;;;;;;10.04;61.41;99011.50;5084304;28;20071;-82
2022/04/27 12:18:51;;;;;;;0.52;0.52;;;;;;;9.93;62.08;99000.50;5105199;28;20044;-82
2022/04/27 12:21:20;;;;;;;0.50;0.50;;;;;;;10.09;62.05;99000.81;5104015;28;20100;-84